Time;durP1;ratioP1;P1;durP2;ratioP2;P2;SDS_P1;SDS_P2;PMS_P1;PMS_P2;Temp;Humidity;BMP_temperature;BMP_pressure;BME280_temperature;BME280_humidity;BME280_pressure;Samples;Min_cycle;Max_cycle;Signal;HPM_P1;HPM_P2
2022/03/07 00:01:24;;;;;;;24.83;11.27;;;;;;;1.03;53.03;102196.41;5006411;28;20410;-65
2022/03/07 00:03:53;;;;;;;23.80;10.50;;;;;;;1.10;52.51;102192.66;4990032;28;20042;-65
2022/03/07 00:06:21;;;;;;;22.30;10.60;;;;;;;1.06;52.17;102197.16;4990079;28;20050;-64
2022/03/07 00:08:49;;;;;;;22.77;10.45;;;;;;;1.07;52.54;102198.84;4973638;28;20380;-65
2022/03/07 00:11:17;;;;;;;21.90;9.98;;;;;;;1.14;52.81;102202.94;4991008;28;20050;-65
2022/03/07 00:13:43;;;;;;;20.27;10.18;;;;;;;1.29;53.20;102198.03;4991262;28;20054;-65
2022/03/07 00:16:10;;;;;;;20.98;9.88;;;;;;;1.35;53.43;102197.81;4991350;28;20129;-65
2022/03/07 00:18:38;;;;;;;23.50;10.88;;;;;;;1.41;53.07;102194.13;4990807;28;20069;-65
2022/03/07 00:21:06;;;;;;;20.00;9.75;;;;;;;1.43;53.16;102193.13;4973884;28;20046;-65
2022/03/07 00:23:34;;;;;;;18.08;9.70;;;;;;;1.46;52.90;102202.63;4990637;28;20125;-65
2022/03/07 00:26:02;;;;;;;24.02;10.20;;;;;;;1.51;51.71;102203.28;4974035;28;20099;-65
2022/03/07 00:28:29;;;;;;;19.98;9.38;;;;;;;1.39;53.04;102207.25;4989654;28;20038;-65
2022/03/07 00:30:56;;;;;;;21.13;10.20;;;;;;;1.44;52.57;102207.91;5002408;28;20103;-65
2022/03/07 00:33:23;;;;;;;19.75;9.55;;;;;;;1.45;51.92;102201.75;4989682;28;20047;-64
2022/03/07 00:35:50;;;;;;;19.70;9.48;;;;;;;1.55;52.66;102210.13;5001540;28;20501;-65
2022/03/07 00:38:16;;;;;;;20.65;9.23;;;;;;;1.38;51.63;102220.38;5008952;28;20038;-65
2022/03/07 00:40:44;;;;;;;18.98;9.27;;;;;;;1.21;52.02;102213.16;4992894;28;20034;-65
2022/03/07 00:43:11;;;;;;;20.85;9.68;;;;;;;1.30;53.11;102221.50;5002960;28;20064;-65
2022/03/07 00:45:39;;;;;;;22.27;9.68;;;;;;;1.28;52.08;102217.25;5010098;28;20444;-64
2022/03/07 00:48:08;;;;;;;21.30;8.95;;;;;;;1.31;52.86;102219.75;5010216;28;20553;-64
2022/03/07 00:50:35;;;;;;;17.58;9.15;;;;;;;1.41;52.92;102217.66;4992645;28;20161;-64
2022/03/07 00:53:02;;;;;;;21.75;9.45;;;;;;;1.50;52.44;102217.28;4960516;28;20173;-65
2022/03/07 00:55:29;;;;;;;20.20;9.23;;;;;;;1.60;52.07;102217.78;4976787;28;20046;-65
2022/03/07 00:57:56;;;;;;;19.35;9.15;;;;;;;1.60;52.63;102215.16;5010189;28;20067;-65
2022/03/07 01:00:23;;;;;;;22.08;9.57;;;;;;;1.46;52.13;102216.56;5009767;28;20046;-65
2022/03/07 01:02:50;;;;;;;17.02;9.05;;;;;;;1.63;52.70;102215.88;5010094;28;20046;-65
2022/03/07 01:05:17;;;;;;;18.13;9.15;;;;;;;1.60;51.33;102215.16;5009923;28;20038;-64
2022/03/07 01:07:43;;;;;;;20.88;10.23;;;;;;;1.77;51.55;102217.97;5009675;28;20038;-65
2022/03/07 01:10:11;;;;;;;19.17;9.35;;;;;;;1.62;51.03;102219.44;5009936;28;20077;-65
2022/03/07 01:12:38;;;;;;;22.33;9.68;;;;;;;1.48;51.33;102217.34;4993878;28;20046;-65
2022/03/07 01:15:06;;;;;;;19.52;9.85;;;;;;;1.61;52.00;102222.94;5010038;28;20083;-64
2022/03/07 01:17:32;;;;;;;17.90;9.30;;;;;;;1.63;51.78;102220.28;5009764;28;20044;-65
2022/03/07 01:19:59;;;;;;;19.80;9.40;;;;;;;1.48;51.57;102213.88;5009956;28;20052;-65
2022/03/07 01:22:26;;;;;;;17.80;9.25;;;;;;;1.31;51.63;102219.75;5008173;28;20050;-65
2022/03/07 01:24:52;;;;;;;20.05;9.43;;;;;;;1.24;52.26;102219.13;5008825;28;20042;-64
2022/03/07 01:27:19;;;;;;;20.50;9.45;;;;;;;1.45;51.90;102216.63;5008473;28;20054;-64
2022/03/07 01:29:49;;;;;;;19.35;9.88;;;;;;;1.42;51.89;102209.75;5008561;28;20151;-64
2022/03/07 01:32:16;;;;;;;19.92;8.95;;;;;;;1.32;52.35;102214.47;5008376;28;20461;-65
2022/03/07 01:34:42;;;;;;;21.35;9.73;;;;;;;1.32;52.18;102217.06;5009392;28;20137;-65
2022/03/07 01:37:09;;;;;;;17.77;9.07;;;;;;;1.41;52.13;102210.66;5008202;28;20046;-64
2022/03/07 01:39:36;;;;;;;20.38;8.70;;;;;;;1.41;51.75;102204.56;5008595;28;20375;-67
2022/03/07 01:42:03;;;;;;;17.27;8.85;;;;;;;1.43;51.54;102202.75;5008861;28;20046;-65
2022/03/07 01:44:31;;;;;;;19.02;8.85;;;;;;;1.39;51.90;102201.16;5012866;28;20112;-65
2022/03/07 01:46:58;;;;;;;19.40;8.93;;;;;;;1.30;52.31;102211.06;4995501;28;20038;-64
2022/03/07 01:49:26;;;;;;;21.17;9.50;;;;;;;1.24;52.69;102200.84;5011819;28;20045;-64
2022/03/07 01:51:53;;;;;;;19.95;9.00;;;;;;;1.39;52.60;102190.72;5012574;28;20076;-64
2022/03/07 01:54:21;;;;;;;18.35;9.27;;;;;;;1.46;52.40;102197.41;5012274;28;20073;-64
2022/03/07 01:56:49;;;;;;;16.45;8.93;;;;;;;1.44;51.61;102187.00;5011585;28;20490;-65
2022/03/07 01:59:18;;;;;;;16.27;8.23;;;;;;;1.49;51.45;102185.06;5012496;28;20041;-65
2022/03/07 02:01:46;;;;;;;18.40;8.85;;;;;;;1.58;51.69;102185.59;5012652;28;20482;-65
2022/03/07 02:04:14;;;;;;;18.45;8.52;;;;;;;1.60;51.44;102181.16;4978812;28;20466;-64
2022/03/07 02:06:41;;;;;;;18.00;8.52;;;;;;;1.60;52.07;102189.00;5011236;28;20050;-64
2022/03/07 02:09:09;;;;;;;14.52;7.45;;;;;;;1.52;51.09;102191.91;5012377;28;20124;-64
2022/03/07 02:11:40;;;;;;;19.40;8.35;;;;;;;1.70;51.88;102182.50;5012380;28;20443;-64
2022/03/07 02:14:12;;;;;;;15.20;7.72;;;;;;;1.77;51.67;102180.50;4979506;28;20506;-65
2022/03/07 02:16:40;;;;;;;16.00;8.25;;;;;;;1.83;51.60;102182.84;5011259;28;20050;-65
2022/03/07 02:19:08;;;;;;;17.60;7.78;;;;;;;1.82;51.64;102186.38;5012774;28;20508;-64
2022/03/07 02:21:35;;;;;;;14.50;7.80;;;;;;;1.67;52.50;102185.22;5012355;28;20099;-65
2022/03/07 02:24:14;;;;;;;16.15;8.40;;;;;;;1.53;52.05;102186.63;5011057;28;20049;-65
2022/03/07 02:27:03;;;;;;;17.00;8.65;;;;;;;1.41;52.31;102186.25;5011126;28;20054;-64
2022/03/07 02:29:30;;;;;;;16.85;8.15;;;;;;;1.48;52.04;102187.72;5011224;28;20042;-64
2022/03/07 02:32:05;;;;;;;15.15;8.52;;;;;;;1.34;52.58;102186.47;5011943;28;20046;-64
2022/03/07 02:34:36;;;;;;;18.05;8.23;;;;;;;1.30;52.50;102182.28;5011979;28;20074;-64
2022/03/07 02:37:03;;;;;;;16.17;8.50;;;;;;;1.09;53.64;102186.59;4991260;28;20117;-64
2022/03/07 02:39:40;;;;;;;16.52;9.23;;;;;;;1.12;53.40;102189.06;4992738;28;20125;-64
2022/03/07 02:42:18;;;;;;;20.15;8.95;;;;;;;1.15;53.49;102188.97;4992366;28;20047;-64
2022/03/07 02:44:45;;;;;;;17.42;8.82;;;;;;;1.22;53.50;102186.09;5007456;28;20046;-65
2022/03/07 02:47:14;;;;;;;22.15;9.68;;;;;;;1.28;54.30;102186.72;4991180;28;20117;-65
2022/03/07 02:49:42;;;;;;;18.15;8.90;;;;;;;1.34;54.43;102183.88;4992561;28;20038;-64
2022/03/07 02:52:10;;;;;;;20.55;10.55;;;;;;;1.33;54.00;102182.19;4991921;28;20100;-64
2022/03/07 02:54:38;;;;;;;17.45;9.35;;;;;;;1.38;54.32;102181.97;4992210;28;20047;-64
2022/03/07 02:57:06;;;;;;;21.25;9.23;;;;;;;1.22;54.01;102193.94;4975029;28;20094;-65
2022/03/07 02:59:33;;;;;;;20.40;9.52;;;;;;;1.07;54.51;102190.16;5010700;28;20045;-65
2022/03/07 03:02:00;;;;;;;17.23;9.27;;;;;;;1.08;54.27;102182.25;5011606;28;20069;-64
2022/03/07 03:04:27;;;;;;;18.25;9.07;;;;;;;1.17;54.50;102183.69;5010576;28;20095;-64
2022/03/07 03:06:54;;;;;;;17.90;9.10;;;;;;;1.00;54.32;102179.09;5011394;28;20038;-65
2022/03/07 03:09:21;;;;;;;19.92;9.15;;;;;;;0.83;55.52;102184.06;5010234;28;20061;-65
2022/03/07 03:11:49;;;;;;;17.23;9.18;;;;;;;1.03;55.71;102181.56;5011378;28;20053;-65
2022/03/07 03:14:15;;;;;;;16.77;8.45;;;;;;;1.10;55.28;102188.28;5010589;28;20054;-65
2022/03/07 03:16:42;;;;;;;18.88;9.85;;;;;;;1.03;55.08;102192.03;5011396;28;20066;-65
2022/03/07 03:19:09;;;;;;;19.02;10.07;;;;;;;0.95;54.89;102186.25;4994301;28;20038;-65
2022/03/07 03:21:35;;;;;;;18.10;8.35;;;;;;;1.03;54.96;102183.34;5011848;28;20062;-65
2022/03/07 03:24:02;;;;;;;18.52;9.13;;;;;;;1.11;55.28;102192.59;5010056;28;20103;-64
2022/03/07 03:26:29;;;;;;;18.65;9.90;;;;;;;1.01;55.16;102193.00;4990565;28;20486;-64
2022/03/07 03:28:56;;;;;;;19.27;10.68;;;;;;;0.90;55.99;102199.47;4990792;28;20060;-64
2022/03/07 03:31:23;;;;;;;18.50;9.98;;;;;;;0.76;56.13;102199.09;5011046;28;20065;-64
2022/03/07 03:33:53;;;;;;;20.60;10.43;;;;;;;1.04;56.56;102198.13;5010033;28;20045;-65
2022/03/07 03:36:20;;;;;;;22.75;10.52;;;;;;;1.07;55.57;102201.44;5011353;28;20041;-64
2022/03/07 03:38:46;;;;;;;19.77;9.80;;;;;;;1.14;55.80;102200.31;5009629;28;20038;-64
2022/03/07 03:41:13;;;;;;;20.85;11.00;;;;;;;1.22;55.52;102201.78;5010259;28;20046;-64
2022/03/07 03:43:40;;;;;;;24.27;11.20;;;;;;;1.18;55.76;102201.06;5011064;28;20447;-65
2022/03/07 03:46:06;;;;;;;21.75;10.75;;;;;;;1.22;56.03;102210.50;5011179;28;20045;-65
2022/03/07 03:48:33;;;;;;;20.27;10.18;;;;;;;1.21;55.43;102202.72;5010933;28;20087;-65
2022/03/07 03:51:00;;;;;;;20.45;10.23;;;;;;;1.20;55.84;102209.72;5009902;28;20046;-65
2022/03/07 03:53:27;;;;;;;20.02;9.90;;;;;;;1.07;55.42;102205.84;5009590;28;20054;-65
2022/03/07 03:55:54;;;;;;;21.23;10.25;;;;;;;1.02;55.53;102208.63;5010877;28;20042;-65
2022/03/07 03:58:20;;;;;;;20.55;10.18;;;;;;;1.11;55.56;102205.69;4990155;28;20559;-65
2022/03/07 04:00:47;;;;;;;22.88;10.60;;;;;;;0.98;56.15;102211.41;5006426;28;20127;-64
2022/03/07 04:03:14;;;;;;;23.45;10.13;;;;;;;1.04;56.29;102205.97;5010763;28;20042;-65
2022/03/07 04:05:41;;;;;;;23.38;10.20;;;;;;;1.25;55.97;102219.97;4992913;28;20050;-64
2022/03/07 04:08:09;;;;;;;23.88;10.68;;;;;;;1.34;55.64;102219.63;5009436;28;20418;-64
2022/03/07 04:10:36;;;;;;;21.85;11.38;;;;;;;1.40;55.74;102221.16;5009367;28;20046;-65
2022/03/07 04:13:03;;;;;;;20.50;10.65;;;;;;;1.19;55.59;102226.28;5009445;28;20464;-65
2022/03/07 04:15:29;;;;;;;17.60;9.93;;;;;;;1.08;55.23;102220.63;5009580;28;20042;-65
2022/03/07 04:17:56;;;;;;;21.52;10.90;;;;;;;1.17;55.72;102222.88;4993386;28;20042;-65
2022/03/07 04:20:24;;;;;;;21.90;10.50;;;;;;;1.24;55.87;102223.53;4993231;28;20129;-65
2022/03/07 04:22:52;;;;;;;19.42;10.68;;;;;;;1.27;55.59;102223.38;5010613;28;20497;-64
2022/03/07 04:25:19;;;;;;;20.95;10.93;;;;;;;1.26;55.92;102219.09;5009310;28;20095;-64
2022/03/07 04:27:46;;;;;;;21.27;10.73;;;;;;;1.16;55.14;102218.56;5010605;28;20141;-64
2022/03/07 04:30:13;;;;;;;18.20;10.07;;;;;;;1.07;55.55;102229.34;5010496;28;20042;-65
2022/03/07 04:32:40;;;;;;;21.33;10.75;;;;;;;1.12;55.77;102224.81;5010529;28;20087;-64
2022/03/07 04:35:10;;;;;;;23.67;10.18;;;;;;;1.17;55.20;102222.88;4993221;28;20053;-64
2022/03/07 04:37:40;;;;;;;19.60;10.20;;;;;;;1.18;55.82;102221.13;5009938;28;20069;-64
2022/03/07 04:40:11;;;;;;;21.17;10.68;;;;;;;1.28;55.75;102222.50;4993209;28;20038;-64
2022/03/07 04:42:40;;;;;;;23.10;11.00;;;;;;;1.28;56.51;102225.09;5009028;28;20049;-64
2022/03/07 04:45:07;;;;;;;21.60;10.52;;;;;;;1.28;56.38;102212.03;5009333;28;20099;-64
2022/03/07 04:47:34;;;;;;;19.67;9.82;;;;;;;1.16;56.18;102221.16;5009084;28;20504;-65
2022/03/07 04:50:01;;;;;;;20.80;10.27;;;;;;;1.19;56.75;102225.44;5009081;28;20073;-64
2022/03/07 04:52:27;;;;;;;22.33;10.27;;;;;;;1.13;56.14;102227.38;5008809;28;20094;-64
2022/03/07 04:54:54;;;;;;;20.88;9.88;;;;;;;1.18;55.70;102226.34;5009004;28;20551;-64
2022/03/07 04:57:21;;;;;;;20.48;10.30;;;;;;;1.15;56.11;102228.16;5009156;28;20068;-64
2022/03/07 04:59:47;;;;;;;21.13;10.32;;;;;;;1.07;56.35;102224.13;5010125;28;20099;-65
2022/03/07 05:02:14;;;;;;;20.05;10.60;;;;;;;1.19;56.33;102233.28;5008870;28;20046;-64
2022/03/07 05:04:41;;;;;;;19.63;10.00;;;;;;;1.14;56.37;102225.59;5010021;28;20046;-64
2022/03/07 05:07:08;;;;;;;23.15;9.57;;;;;;;1.17;56.48;102228.13;5009876;28;20052;-64
2022/03/07 05:09:35;;;;;;;19.20;10.00;;;;;;;1.13;56.56;102232.59;5008468;28;20045;-64
2022/03/07 05:12:02;;;;;;;22.85;10.35;;;;;;;1.10;57.33;102230.09;4976537;28;20045;-64
2022/03/07 05:14:29;;;;;;;23.52;10.25;;;;;;;1.14;57.30;102223.84;5008690;28;20102;-64
2022/03/07 05:16:56;;;;;;;18.98;9.90;;;;;;;1.08;56.74;102228.47;5010471;28;20049;-64
2022/03/07 05:19:23;;;;;;;20.50;9.73;;;;;;;1.13;56.17;102237.84;5012107;28;20063;-64
2022/03/07 05:21:50;;;;;;;19.00;9.57;;;;;;;1.18;55.62;102231.56;4980417;28;20091;-64
2022/03/07 05:24:17;;;;;;;18.70;9.45;;;;;;;1.23;56.44;102246.19;5012684;28;20493;-64
2022/03/07 05:26:44;;;;;;;26.15;9.32;;;;;;;1.28;56.19;102249.47;5012912;28;20125;-64
2022/03/07 05:29:11;;;;;;;20.13;9.00;;;;;;;1.28;55.31;102244.25;5014268;28;20049;-64
2022/03/07 05:31:37;;;;;;;18.80;8.10;;;;;;;1.18;54.55;102247.25;4995792;28;20057;-64
2022/03/07 05:34:04;;;;;;;15.52;8.27;;;;;;;1.34;54.34;102241.41;5011587;28;20042;-64
2022/03/07 05:36:34;;;;;;;14.38;7.43;;;;;;;1.23;53.53;102242.72;4996295;28;20042;-64
2022/03/07 05:39:01;;;;;;;17.45;8.55;;;;;;;1.40;54.66;102242.06;5011395;28;20497;-64
2022/03/07 05:41:28;;;;;;;15.85;7.25;;;;;;;1.43;53.44;102240.19;5013121;28;20042;-64
2022/03/07 05:43:55;;;;;;;19.83;7.45;;;;;;;1.44;53.46;102241.91;5011682;28;20054;-64
2022/03/07 05:46:21;;;;;;;13.45;6.80;;;;;;;1.41;52.69;102236.78;5012827;28;20053;-64
2022/03/07 05:48:48;;;;;;;15.05;6.65;;;;;;;1.45;52.56;102241.00;5011577;28;20048;-64
2022/03/07 05:51:22;;;;;;;13.65;7.00;;;;;;;1.34;52.07;102240.56;5011535;28;20038;-64
2022/03/07 05:53:50;;;;;;;17.85;8.23;;;;;;;1.36;52.37;102241.34;5011156;28;20042;-64
2022/03/07 05:56:17;;;;;;;13.63;6.43;;;;;;;1.34;52.90;102244.00;5012665;28;20196;-64
2022/03/07 05:58:46;;;;;;;14.65;7.20;;;;;;;1.25;53.23;102246.13;5012846;28;20095;-64
2022/03/07 06:01:14;;;;;;;13.65;6.97;;;;;;;1.22;52.96;102238.38;5011333;28;20095;-64
2022/03/07 06:03:41;;;;;;;14.52;7.18;;;;;;;1.10;53.37;102243.16;5011132;28;20129;-64
2022/03/07 06:06:08;;;;;;;16.90;7.97;;;;;;;1.07;53.33;102245.03;5005605;28;20113;-64
2022/03/07 06:08:35;;;;;;;17.00;8.13;;;;;;;1.02;54.09;102244.34;4991299;28;20058;-63
2022/03/07 06:11:02;;;;;;;16.58;8.43;;;;;;;1.01;54.11;102247.88;4991118;28;20046;-64
2022/03/07 06:13:29;;;;;;;15.10;7.57;;;;;;;0.92;54.25;102246.44;4992807;28;20044;-63
2022/03/07 06:15:55;;;;;;;18.20;7.80;;;;;;;0.72;54.57;102261.06;4975664;28;20046;-63
2022/03/07 06:18:22;;;;;;;15.05;7.88;;;;;;;0.72;55.43;102253.22;4992931;28;20064;-63
2022/03/07 06:20:49;;;;;;;15.27;7.35;;;;;;;0.83;55.05;102258.06;5007527;28;20068;-63
2022/03/07 06:23:15;;;;;;;17.95;8.35;;;;;;;0.85;54.80;102258.03;4991316;28;20043;-63
2022/03/07 06:25:42;;;;;;;17.38;8.00;;;;;;;0.87;55.41;102264.03;5007481;28;20088;-64
2022/03/07 06:28:09;;;;;;;15.82;7.70;;;;;;;0.68;54.91;102263.84;5009147;28;20042;-63
2022/03/07 06:30:36;;;;;;;15.48;7.55;;;;;;;0.61;54.72;102259.75;5012026;28;20046;-63
2022/03/07 06:33:03;;;;;;;17.50;7.38;;;;;;;0.69;55.03;102260.31;5012114;28;20046;-63
2022/03/07 06:35:30;;;;;;;17.55;8.07;;;;;;;0.72;55.11;102268.91;5010830;28;20494;-63
2022/03/07 06:37:58;;;;;;;19.85;9.05;;;;;;;0.76;55.12;102267.03;5011637;28;20170;-63
2022/03/07 06:40:27;;;;;;;17.30;7.53;;;;;;;0.62;54.02;102262.31;4978632;28;20038;-63
2022/03/07 06:42:53;;;;;;;17.33;8.02;;;;;;;0.70;54.56;102268.09;5011810;28;20091;-64
2022/03/07 06:45:20;;;;;;;15.38;7.93;;;;;;;0.69;54.54;102271.63;5010784;28;20041;-63
2022/03/07 06:47:47;;;;;;;16.48;7.75;;;;;;;0.84;54.07;102272.84;5010142;28;20125;-64
2022/03/07 06:50:15;;;;;;;13.98;6.85;;;;;;;0.82;54.39;102274.69;5010387;28;20494;-63
2022/03/07 06:52:42;;;;;;;19.45;7.05;;;;;;;0.90;54.17;102274.41;4994094;28;20070;-63
2022/03/07 06:55:10;;;;;;;15.32;7.55;;;;;;;0.94;53.82;102270.75;5011440;28;20046;-63
2022/03/07 06:57:37;;;;;;;20.35;7.75;;;;;;;1.00;53.51;102273.19;5010488;28;20482;-64
2022/03/07 07:00:09;;;;;;;18.40;8.00;;;;;;;1.06;53.11;102267.72;5010484;28;20034;-63
2022/03/07 07:02:36;;;;;;;14.30;7.00;;;;;;;1.02;52.52;102276.59;4994265;28;20042;-63
2022/03/07 07:05:04;;;;;;;13.75;6.65;;;;;;;1.01;53.41;102277.47;4994163;28;20045;-63
2022/03/07 07:07:31;;;;;;;15.82;7.20;;;;;;;1.18;52.26;102279.47;5011175;28;20050;-63
2022/03/07 07:09:58;;;;;;;14.98;6.78;;;;;;;1.19;51.04;102278.59;4993989;28;20038;-64
2022/03/07 07:12:25;;;;;;;13.98;6.32;;;;;;;1.26;51.81;102277.44;5010099;28;20042;-63
2022/03/07 07:14:52;;;;;;;13.50;6.70;;;;;;;1.27;51.10;102280.91;5011434;28;20042;-63
2022/03/07 07:17:19;;;;;;;18.38;6.68;;;;;;;1.25;51.62;102280.13;5010472;28;20053;-66
2022/03/07 07:19:46;;;;;;;15.15;7.55;;;;;;;1.36;50.98;102285.78;4993856;28;20046;-66
2022/03/07 07:22:12;;;;;;;12.93;6.38;;;;;;;1.40;50.88;102291.75;5011638;28;20042;-63
2022/03/07 07:24:39;;;;;;;13.63;6.43;;;;;;;1.48;50.73;102284.50;5009654;28;20042;-64
2022/03/07 07:27:06;;;;;;;13.23;6.45;;;;;;;1.43;50.48;102292.50;5010337;28;20045;-63
2022/03/07 07:29:33;;;;;;;15.02;6.38;;;;;;;1.55;49.73;102293.81;5009836;28;20087;-65
2022/03/07 07:32:01;;;;;;;16.65;7.18;;;;;;;1.60;49.90;102297.13;4993963;28;20041;-65
2022/03/07 07:34:28;;;;;;;15.40;6.72;;;;;;;1.72;49.65;102301.03;5011074;28;20054;-65
2022/03/07 07:36:55;;;;;;;13.88;6.60;;;;;;;1.77;49.32;102301.72;5011188;28;20516;-63
2022/03/07 07:39:24;;;;;;;15.18;6.32;;;;;;;1.65;49.19;102291.72;5011683;28;20050;-64
2022/03/07 07:41:51;;;;;;;19.38;7.43;;;;;;;1.71;49.37;102294.06;5015035;28;20050;-65
2022/03/07 07:44:18;;;;;;;15.02;6.47;;;;;;;1.72;48.64;102294.03;5009967;28;20041;-63
2022/03/07 07:46:45;;;;;;;13.10;6.68;;;;;;;1.59;49.92;102298.03;5009879;28;20087;-64
2022/03/07 07:49:12;;;;;;;15.95;7.00;;;;;;;1.82;48.43;102297.16;5010974;28;20126;-63
2022/03/07 07:51:39;;;;;;;15.27;7.05;;;;;;;1.81;48.69;102291.97;5011095;28;20053;-63
2022/03/07 07:54:05;;;;;;;15.02;6.50;;;;;;;1.73;48.50;102300.13;5010762;28;20102;-64
2022/03/07 07:56:32;;;;;;;15.82;6.65;;;;;;;1.87;48.91;102289.97;5009750;28;20049;-63
2022/03/07 07:58:59;;;;;;;14.98;6.55;;;;;;;1.90;48.32;102291.63;5010861;28;20077;-63
2022/03/07 08:01:26;;;;;;;13.57;7.07;;;;;;;2.12;48.15;102294.22;5009397;28;20038;-63
2022/03/07 08:03:53;;;;;;;14.40;6.50;;;;;;;2.19;47.73;102300.94;5010678;28;20052;-63
2022/03/07 08:06:20;;;;;;;13.52;6.75;;;;;;;2.19;48.26;102295.69;5009486;28;20129;-63
2022/03/07 08:08:47;;;;;;;13.70;6.88;;;;;;;2.49;47.15;102295.34;5009395;28;20046;-64
2022/03/07 08:11:14;;;;;;;16.23;7.00;;;;;;;2.25;48.32;102311.16;5010445;28;20469;-64
2022/03/07 08:13:40;;;;;;;17.27;7.55;;;;;;;2.37;47.91;102311.59;5010947;28;20494;-64
2022/03/07 08:16:07;;;;;;;15.05;7.15;;;;;;;2.36;47.81;102309.88;5010625;28;20046;-64
2022/03/07 08:18:34;;;;;;;15.65;7.32;;;;;;;2.48;47.63;102301.53;5010739;28;20042;-65
2022/03/07 08:21:01;;;;;;;19.13;7.80;;;;;;;2.61;47.44;102300.09;4977152;28;20048;-64
2022/03/07 08:23:28;;;;;;;14.00;7.20;;;;;;;2.37;47.93;102301.13;4997630;28;20046;-63
2022/03/07 08:25:54;;;;;;;18.90;6.80;;;;;;;2.57;46.35;102301.13;5008435;28;20069;-63
2022/03/07 08:28:21;;;;;;;14.05;6.68;;;;;;;2.58;46.18;102294.13;5004178;28;20046;-63
2022/03/07 08:30:48;;;;;;;20.00;6.43;;;;;;;2.28;47.12;102295.31;5006049;28;20034;-64
2022/03/07 08:33:15;;;;;;;17.17;6.72;;;;;;;2.53;47.26;102301.31;5009222;28;20069;-63
2022/03/07 08:35:42;;;;;;;17.52;6.65;;;;;;;2.79;45.81;102297.63;5008958;28;20065;-62
2022/03/07 08:38:08;;;;;;;13.80;6.38;;;;;;;2.83;45.59;102296.56;5009933;28;20042;-63
2022/03/07 08:40:40;;;;;;;;;;;;;;;3.13;45.07;102298.75;4990035;28;20064;-62
2022/03/07 08:43:08;;;;;;;12.68;6.47;;;;;;;3.13;44.82;102298.75;4989486;28;19957;-65
2022/03/07 08:45:35;;;;;;;13.32;6.25;;;;;;;3.02;44.66;102297.47;5064432;28;20070;-62
2022/03/07 08:48:17;;;;;;;14.80;6.53;;;;;;;2.74;44.81;102299.56;5032441;28;20074;-65
2022/03/07 08:50:46;;;;;;;13.98;6.50;;;;;;;2.79;45.70;102301.06;5017296;28;20083;-64
2022/03/07 08:53:13;;;;;;;13.02;5.80;;;;;;;2.85;45.43;102299.97;5016169;28;20050;-63
2022/03/07 08:55:39;;;;;;;13.35;5.57;;;;;;;3.31;44.94;102297.97;5005911;28;20070;-64
2022/03/07 08:58:08;;;;;;;12.82;6.63;;;;;;;3.36;44.21;102303.81;4993811;28;20050;-64
2022/03/07 09:00:35;;;;;;;11.75;5.90;;;;;;;3.48;43.51;102298.97;5026514;28;20037;-64
2022/03/07 09:03:04;;;;;;;13.68;6.07;;;;;;;3.39;44.06;102303.69;5015934;28;20414;-64
2022/03/07 09:05:31;;;;;;;13.85;6.45;;;;;;;3.38;44.19;102296.72;5016268;28;20041;-64
2022/03/07 09:07:58;;;;;;;11.35;5.85;;;;;;;3.54;43.48;102307.38;5022521;28;20045;-64
2022/03/07 09:10:24;;;;;;;12.07;6.38;;;;;;;3.57;43.76;102307.25;5008973;28;20448;-64
2022/03/07 09:12:54;;;;;;;11.73;5.72;;;;;;;2.95;44.99;102301.28;5020560;28;20041;-64
2022/03/07 09:15:21;;;;;;;13.15;5.63;;;;;;;3.20;44.35;102297.56;5043586;28;20046;-64
2022/03/07 09:17:47;;;;;;;13.32;5.88;;;;;;;3.39;44.11;102297.59;5010929;28;20045;-64
2022/03/07 09:20:16;;;;;;;13.60;6.13;;;;;;;3.21;44.20;102291.41;5010660;28;20049;-64
2022/03/07 09:22:44;;;;;;;15.23;6.28;;;;;;;3.20;44.80;102295.81;5011437;28;20046;-64
2022/03/07 09:25:11;;;;;;;13.82;5.65;;;;;;;3.46;43.82;102292.00;5007232;28;20042;-64
2022/03/07 09:27:38;;;;;;;13.45;5.68;;;;;;;3.55;43.29;102292.53;4967357;28;20069;-64
2022/03/07 09:30:06;;;;;;;12.60;5.63;;;;;;;3.74;43.41;102285.47;5024915;28;20096;-64
2022/03/07 09:32:33;;;;;;;13.98;5.63;;;;;;;4.06;42.44;102284.84;4993340;28;20522;-64
2022/03/07 09:35:00;;;;;;;14.50;5.78;;;;;;;3.98;42.59;102283.47;4993257;28;20047;-64
2022/03/07 09:37:26;;;;;;;15.30;5.53;;;;;;;4.38;42.31;102281.53;5005522;28;20045;-65
2022/03/07 09:39:53;;;;;;;11.60;6.10;;;;;;;3.94;42.75;102286.31;4991938;28;20038;-64
2022/03/07 09:42:26;;;;;;;13.98;5.47;;;;;;;5.72;39.69;102289.47;5012137;28;20391;-65
2022/03/07 09:44:54;;;;;;;13.95;5.78;;;;;;;6.42;37.54;102276.75;5011573;28;20038;-64
2022/03/07 09:47:22;;;;;;;12.93;5.90;;;;;;;8.23;34.33;102272.56;4994702;28;20038;-65
2022/03/07 09:49:51;;;;;;;11.70;5.50;;;;;;;9.53;32.24;102271.66;5001782;28;20047;-64
2022/03/07 09:52:18;;;;;;;11.57;5.70;;;;;;;11.20;28.90;102265.41;4997913;28;20046;-65
2022/03/07 09:54:45;;;;;;;11.70;5.47;;;;;;;11.03;29.45;102262.28;4999821;28;20517;-65
2022/03/07 09:57:11;;;;;;;13.05;5.30;;;;;;;12.10;28.12;102275.91;4999467;28;20043;-65
2022/03/07 09:59:38;;;;;;;12.88;5.85;;;;;;;12.80;26.22;102260.28;4991718;28;20095;-66
2022/03/07 10:02:09;;;;;;;10.90;5.18;;;;;;;12.62;26.76;102260.88;5005142;28;20121;-65
2022/03/07 10:04:43;;;;;;;13.17;5.07;;;;;;;12.42;25.94;102261.72;5016163;28;20120;-63
2022/03/07 10:07:10;;;;;;;10.07;4.95;;;;;;;13.27;25.79;102259.81;5010917;28;20042;-65
2022/03/07 10:09:37;;;;;;;11.10;5.15;;;;;;;13.70;24.72;102261.34;5010372;28;20042;-63
2022/03/07 10:12:05;;;;;;;12.30;5.80;;;;;;;14.44;24.00;102252.81;5011955;28;20040;-64
2022/03/07 10:14:41;;;;;;;9.73;5.07;;;;;;;13.76;24.19;102251.00;5011669;28;20091;-64
2022/03/07 10:17:26;;;;;;;14.82;5.18;;;;;;;15.17;22.81;102249.53;5010660;28;20038;-64
2022/03/07 10:19:55;;;;;;;13.45;4.90;;;;;;;15.64;22.44;102248.59;5011094;28;20120;-64
2022/03/07 10:22:24;;;;;;;10.45;4.90;;;;;;;16.18;21.17;102249.47;5011488;28;20041;-64
2022/03/07 10:25:08;;;;;;;10.73;5.15;;;;;;;16.01;21.17;102253.00;5011737;28;20042;-64
2022/03/07 10:27:39;;;;;;;12.05;5.22;;;;;;;15.60;21.84;102244.53;5009299;28;20046;-64
2022/03/07 10:33:12;;;;;;;14.02;6.05;;;;;;;13.82;23.94;102237.13;5090271;27;20764;-65
2022/03/07 10:35:41;;;;;;;;;;;;;;;14.92;22.81;102233.19;5069477;28;20053;-65
2022/03/07 10:38:13;;;;;;;10.95;5.70;;;;;;;16.98;20.48;102237.81;5103475;28;19920;-65
2022/03/07 10:40:42;;;;;;;24.10;6.47;;;;;;;12.49;25.47;102229.13;5090470;28;20071;-65
2022/03/07 10:43:14;;;;;;;13.88;5.72;;;;;;;14.77;23.71;102234.63;5088872;28;20032;-64
2022/03/07 10:45:50;;;;;;;12.27;5.85;;;;;;;14.68;22.82;102228.34;5088967;28;20048;-65
2022/03/07 10:48:18;;;;;;;12.55;5.45;;;;;;;16.99;20.78;102232.31;5089945;28;20044;-65
2022/03/07 10:50:50;;;;;;;13.95;5.80;;;;;;;17.37;20.25;102230.13;5089450;28;20093;-65
2022/03/07 10:53:19;;;;;;;10.05;4.82;;;;;;;17.89;19.17;102231.75;5072184;28;20082;-65
2022/03/07 10:56:01;;;;;;;11.05;4.78;;;;;;;18.54;19.00;102216.63;5087321;28;20124;-65
2022/03/07 10:58:27;;;;;;;;;;;;;;;17.50;18.93;102218.06;5086979;28;20202;-65
2022/03/07 11:00:58;;;;;;;10.15;4.85;;;;;;;18.82;18.69;102209.00;5072236;28;19982;-65
2022/03/07 11:03:29;;;;;;;13.43;5.40;;;;;;;18.42;18.69;102208.06;5068759;28;20070;-65
2022/03/07 11:05:57;;;;;;;11.88;4.82;;;;;;;17.94;18.80;102209.78;5072562;28;20139;-63
2022/03/07 11:08:24;;;;;;;11.50;5.10;;;;;;;14.16;23.84;102204.66;5089054;28;20036;-64
2022/03/07 11:10:54;;;;;;;11.43;5.20;;;;;;;15.05;22.22;102210.66;5089457;28;20040;-64
2022/03/07 11:13:26;;;;;;;16.75;4.93;;;;;;;16.17;21.50;102194.25;5098188;28;20039;-64
2022/03/07 11:15:53;;;;;;;;;;;;;;;15.63;21.91;102201.44;5104880;28;20488;-65
2022/03/07 11:18:21;;;;;;;11.65;4.82;;;;;;;15.81;21.48;102196.97;5080045;28;19920;-64
2022/03/07 11:20:50;;;;;;;11.38;4.35;;;;;;;16.89;20.06;102197.56;5089263;28;20044;-65
2022/03/07 11:23:18;;;;;;;12.63;5.07;;;;;;;16.21;20.18;102189.41;5088982;28;20044;-65
2022/03/07 11:25:45;;;;;;;10.07;4.65;;;;;;;17.38;20.12;102188.88;5088053;28;20040;-65
2022/03/07 11:28:12;;;;;;;10.00;4.47;;;;;;;20.17;17.53;102178.25;5088236;28;20044;-65
2022/03/07 11:30:42;;;;;;;17.58;4.90;;;;;;;19.56;17.35;102176.38;5087516;28;20048;-65